createdAt,value
2018-11-22T00:02:09.721Z,22.80
2018-11-22T00:04:38.023Z,21.23
2018-11-22T00:07:06.157Z,23.50
2018-11-22T00:09:34.308Z,23.10
2018-11-22T00:12:02.447Z,23.13
2018-11-22T00:14:31.413Z,20.43
2018-11-22T00:16:59.553Z,20.30
2018-11-22T00:19:27.710Z,20.60
2018-11-22T00:21:55.855Z,21.60
2018-11-22T00:24:24.032Z,20.70
2018-11-22T00:26:52.171Z,23.07
2018-11-22T00:29:20.344Z,22.93
2018-11-22T00:31:48.488Z,21.93
2018-11-22T00:34:16.641Z,18.47
2018-11-22T00:36:44.793Z,21.27
2018-11-22T00:39:13.391Z,19.37
2018-11-22T00:41:41.609Z,17.47
2018-11-22T00:44:09.758Z,20.27
2018-11-22T00:46:37.914Z,20.37
2018-11-22T00:49:06.056Z,22.43
2018-11-22T00:51:34.214Z,17.20
2018-11-22T00:54:02.365Z,19.60
2018-11-22T00:56:30.543Z,19.60
2018-11-22T00:58:58.690Z,20.90
2018-11-22T01:01:26.831Z,19.93
2018-11-22T01:03:55.001Z,23.27
2018-11-22T01:06:23.145Z,22.50
2018-11-22T01:08:51.384Z,19.13
2018-11-22T01:11:19.518Z,20.60
2018-11-22T01:13:47.681Z,22.37
2018-11-22T01:16:15.820Z,19.47
2018-11-22T01:18:44.008Z,20.27
2018-11-22T01:21:12.161Z,19.10
2018-11-22T01:23:40.302Z,19.87
2018-11-22T01:26:08.468Z,20.17
2018-11-22T01:28:36.620Z,20.40
2018-11-22T01:31:04.820Z,18.07
2018-11-22T01:33:32.949Z,19.73
2018-11-22T01:36:01.113Z,18.70
2018-11-22T01:38:29.259Z,17.13
2018-11-22T01:40:57.424Z,20.03
2018-11-22T01:43:25.568Z,18.10
2018-11-22T01:45:53.745Z,20.37
2018-11-22T01:48:21.894Z,20.83
2018-11-22T01:50:50.030Z,20.40
2018-11-22T01:53:18.241Z,17.20
2018-11-22T01:55:46.440Z,17.57
2018-11-22T01:58:14.606Z,16.73
2018-11-22T02:00:42.759Z,18.43
2018-11-22T02:03:11.101Z,21.03
2018-11-22T02:05:39.250Z,15.97
2018-11-22T02:08:07.398Z,18.27
2018-11-22T02:10:35.540Z,16.00
2018-11-22T02:13:03.698Z,18.03
2018-11-22T02:15:31.832Z,16.67
2018-11-22T02:18:00.325Z,17.30
2018-11-22T02:20:28.479Z,17.73
2018-11-22T02:22:56.617Z,19.20
2018-11-22T02:25:28.912Z,16.77
2018-11-22T02:27:57.055Z,18.77
2018-11-22T02:30:26.552Z,17.10
2018-11-22T02:32:56.018Z,21.43
2018-11-22T02:35:24.640Z,20.27
2018-11-22T02:37:52.796Z,15.27
2018-11-22T02:40:21.640Z,18.70
2018-11-22T02:42:50.146Z,16.93
2018-11-22T02:45:19.879Z,20.00
2018-11-22T02:47:48.011Z,18.40
2018-11-22T02:50:17.382Z,17.33
2018-11-22T02:52:45.729Z,17.50
2018-11-22T02:55:13.877Z,17.40
2018-11-22T02:57:42.409Z,18.20
2018-11-22T03:00:43.221Z,18.53
2018-11-22T03:03:11.977Z,16.97
2018-11-22T03:05:40.121Z,16.30
2018-11-22T03:08:08.280Z,17.83
2018-11-22T03:10:36.457Z,18.40
2018-11-22T03:13:05.090Z,17.60
2018-11-22T03:15:33.215Z,18.30
2018-11-22T03:18:01.361Z,18.40
2018-11-22T03:20:29.524Z,15.77
2018-11-22T03:22:57.666Z,18.93
2018-11-22T03:25:25.829Z,16.40
2018-11-22T03:27:54.257Z,19.63
2018-11-22T03:30:23.370Z,18.70
2018-11-22T03:32:51.496Z,16.00
2018-11-22T03:35:21.136Z,19.60
2018-11-22T03:37:49.280Z,19.27
2018-11-22T03:40:18.752Z,19.60
2018-11-22T03:42:46.889Z,17.07
2018-11-22T03:45:15.822Z,16.37
2018-11-22T03:47:44.388Z,18.43
2018-11-22T03:50:13.832Z,20.57
2018-11-22T03:52:42.589Z,18.50
2018-11-22T03:55:12.265Z,20.93
2018-11-22T03:57:40.754Z,17.80
2018-11-22T04:00:16.168Z,17.23
2018-11-22T04:02:44.736Z,18.90
2018-11-22T04:05:14.413Z,20.00
2018-11-22T04:07:42.848Z,21.73
2018-11-22T04:10:13.113Z,19.23
2018-11-22T04:12:41.492Z,18.63
2018-11-22T04:15:10.527Z,20.23
2018-11-22T04:17:38.710Z,20.70
2018-11-22T04:20:08.105Z,21.07
2018-11-22T04:22:36.263Z,20.57
2018-11-22T04:25:04.825Z,18.77
2018-11-22T04:27:32.971Z,18.23
2018-11-22T04:30:01.506Z,20.20
2018-11-22T12:16:35.195Z,26.90
2018-11-22T12:19:03.951Z,25.53
2018-11-22T12:21:32.223Z,25.43
2018-11-22T12:24:00.484Z,27.23
2018-11-22T12:26:28.848Z,23.90
2018-11-22T12:28:56.999Z,27.43
2018-11-22T12:31:25.180Z,23.50
2018-11-22T12:33:58.751Z,24.63
2018-11-22T12:36:32.295Z,23.83
2018-11-22T12:39:00.455Z,22.17
2018-11-22T12:41:28.608Z,24.07
2018-11-22T12:43:56.801Z,22.53
2018-11-22T12:46:25.000Z,25.80
2018-11-22T12:48:53.172Z,23.97
2018-11-22T12:51:21.336Z,22.37
2018-11-22T12:53:49.510Z,21.67
2018-11-22T12:56:17.655Z,26.90
2018-11-22T12:58:45.829Z,25.07
2018-11-22T13:01:14.025Z,23.40
2018-11-22T13:03:42.202Z,21.77
2018-11-22T13:06:10.348Z,24.87
2018-11-22T13:08:38.534Z,24.00
2018-11-22T13:11:06.698Z,22.53
2018-11-22T13:13:34.873Z,22.47
2018-11-22T13:16:03.047Z,24.40
2018-11-22T13:18:31.219Z,20.93
2018-11-22T13:20:59.379Z,21.73
2018-11-22T13:23:27.543Z,23.00
2018-11-22T13:25:55.707Z,22.90
2018-11-22T13:28:23.897Z,23.60
2018-11-22T13:30:52.399Z,24.10
2018-11-22T13:33:20.611Z,28.10
2018-11-22T13:35:48.763Z,21.60
2018-11-22T13:38:16.944Z,23.30
2018-11-22T13:40:45.095Z,21.20
2018-11-22T13:43:13.267Z,23.53
2018-11-22T13:45:41.420Z,24.13
2018-11-22T13:48:09.588Z,20.87
2018-11-22T13:50:41.929Z,24.00
2018-11-22T13:53:07.434Z,22.80
2018-11-22T13:55:35.615Z,22.53
2018-11-22T13:58:03.815Z,21.40
2018-11-22T14:00:32.908Z,22.53
2018-11-22T14:03:04.441Z,22.93
2018-11-22T14:05:32.599Z,24.57
2018-11-22T14:08:00.847Z,24.30
2018-11-22T14:10:29.003Z,30.60
2018-11-22T14:12:57.196Z,28.63
2018-11-22T14:15:26.726Z,32.80
2018-11-22T14:17:56.375Z,30.10
2018-11-22T14:20:27.913Z,32.43
2018-11-22T14:22:56.082Z,36.37
2018-11-22T14:25:24.255Z,41.10
2018-11-22T14:27:52.483Z,38.43
2018-11-22T14:30:24.087Z,39.70
2018-11-22T14:32:52.567Z,34.93
2018-11-22T14:35:21.379Z,32.77
2018-11-22T14:37:49.639Z,32.80
2018-11-22T14:40:19.343Z,31.83
2018-11-22T14:42:48.297Z,38.80
2018-11-22T14:45:16.666Z,33.43
2018-11-22T14:47:46.060Z,35.00
2018-11-22T14:50:17.915Z,30.80
2018-11-22T14:52:47.239Z,33.13
2018-11-22T14:55:15.415Z,33.07
2018-11-22T14:57:43.564Z,33.50
2018-11-22T15:00:12.703Z,38.33
2018-11-22T15:02:42.316Z,35.37
2018-11-22T15:05:11.359Z,32.63
2018-11-22T15:07:40.202Z,37.20
2018-11-22T15:10:09.284Z,34.43
2018-11-22T15:12:37.431Z,38.83
2018-11-22T15:15:07.267Z,45.27
2018-11-22T15:17:35.426Z,44.47
2018-11-22T15:20:04.068Z,39.77
2018-11-22T15:22:32.219Z,42.87
2018-11-22T15:25:00.484Z,32.03
2018-11-22T15:27:29.568Z,37.57
2018-11-22T15:29:58.232Z,38.07
2018-11-22T15:32:26.849Z,37.73
2018-11-22T15:34:55.087Z,36.73
2018-11-22T15:37:23.291Z,38.67
2018-11-22T15:39:51.492Z,35.87
2018-11-22T15:42:19.755Z,37.10
2018-11-22T15:44:47.975Z,35.83
2018-11-22T15:47:16.208Z,38.20
2018-11-22T15:49:44.397Z,33.77
2018-11-22T15:52:12.608Z,34.47
2018-11-22T15:54:40.787Z,40.40
2018-11-22T15:57:08.932Z,33.80
2018-11-22T15:59:37.131Z,35.53
2018-11-22T16:02:05.345Z,42.63
2018-11-22T16:04:33.569Z,38.20
2018-11-22T16:07:01.728Z,36.77
2018-11-22T16:09:29.930Z,35.83
2018-11-22T16:11:59.202Z,31.80
2018-11-22T16:14:27.371Z,31.30
2018-11-22T16:16:55.600Z,36.00
2018-11-22T16:19:23.788Z,43.10
2018-11-22T16:21:51.963Z,36.20
2018-11-22T16:24:20.109Z,36.43
2018-11-22T16:26:48.291Z,34.43
2018-11-22T16:29:16.693Z,38.23
2018-11-22T16:31:44.898Z,34.33
2018-11-22T16:34:13.120Z,41.97
2018-11-22T16:36:42.008Z,39.77
2018-11-22T16:39:10.607Z,37.50
2018-11-22T16:41:38.799Z,41.63
2018-11-22T16:44:07.301Z,35.30
2018-11-22T16:46:35.499Z,38.33
2018-11-22T16:49:03.675Z,33.43
2018-11-22T16:51:31.867Z,34.37
2018-11-22T16:54:00.036Z,38.43
2018-11-22T16:56:28.266Z,39.00
2018-11-22T16:58:56.438Z,41.57
2018-11-22T17:01:27.752Z,33.53
2018-11-22T17:03:52.896Z,41.27
2018-11-22T17:06:21.107Z,41.10
2018-11-22T17:08:49.268Z,38.50
2018-11-22T17:11:17.447Z,41.77
2018-11-22T17:13:45.611Z,38.50
2018-11-22T17:16:13.790Z,38.30
2018-11-22T17:18:41.952Z,39.60
2018-11-22T17:21:10.167Z,41.93
2018-11-22T17:23:38.715Z,43.90
2018-11-22T17:26:06.927Z,38.20
2018-11-22T17:28:35.331Z,38.57
2018-11-22T17:31:03.540Z,44.77
2018-11-22T17:33:31.699Z,38.10
2018-11-22T17:35:59.876Z,38.63
2018-11-22T17:38:28.055Z,35.77
2018-11-22T17:40:56.219Z,37.83
2018-11-22T17:43:24.392Z,37.43
2018-11-22T17:45:53.080Z,38.97
2018-11-22T17:48:21.310Z,34.73
2018-11-22T17:50:49.833Z,32.73
2018-11-22T17:53:18.203Z,38.23
2018-11-22T17:55:46.377Z,30.57
2018-11-22T17:58:15.068Z,35.87
2018-11-22T18:00:47.408Z,33.63
2018-11-22T18:03:15.643Z,35.90
2018-11-22T18:05:43.811Z,33.90
2018-11-22T18:08:12.027Z,30.17
2018-11-22T18:10:40.980Z,33.57
2018-11-22T18:13:09.261Z,39.93
2018-11-22T18:15:56.791Z,36.33
2018-11-22T18:18:25.655Z,38.00
2018-11-22T18:20:53.824Z,36.20
2018-11-22T18:23:22.069Z,37.63
2018-11-22T18:25:51.161Z,37.97
2018-11-22T18:28:19.342Z,36.97
2018-11-22T18:30:47.500Z,35.00
2018-11-22T18:33:15.695Z,32.83
2018-11-22T18:35:43.894Z,33.70
2018-11-22T18:38:12.092Z,26.40
2018-11-22T18:40:41.487Z,37.43
2018-11-22T18:43:09.666Z,38.70
2018-11-22T18:45:40.911Z,32.00
2018-11-22T18:48:10.079Z,35.40
2018-11-22T18:50:38.723Z,33.30
2018-11-22T18:53:07.332Z,31.70
2018-11-22T18:55:35.503Z,31.73
2018-11-22T18:58:03.735Z,41.03
2018-11-22T19:00:34.095Z,25.67
2018-11-22T19:03:02.971Z,28.73
2018-11-22T19:05:31.160Z,29.90
2018-11-22T19:07:59.788Z,28.73
2018-11-22T19:10:30.263Z,32.10
2018-11-22T19:13:02.457Z,30.93
2018-11-22T19:15:31.845Z,36.97
2018-11-22T19:18:00.120Z,31.27
2018-11-22T19:20:29.892Z,34.80
2018-11-22T19:22:58.807Z,36.83
2018-11-22T19:25:26.964Z,35.00
2018-11-22T19:27:55.903Z,35.90
2018-11-22T19:30:26.081Z,33.63
2018-11-22T19:32:55.387Z,28.67
2018-11-22T19:35:24.922Z,31.23
2018-11-22T19:37:53.116Z,30.27
2018-11-22T19:40:25.533Z,28.33
2018-11-22T19:42:55.245Z,28.87
2018-11-22T19:45:24.787Z,27.00
2018-11-22T19:47:53.007Z,29.67
2018-11-22T19:50:22.523Z,26.57
2018-11-22T19:52:51.223Z,28.53
2018-11-22T19:55:20.878Z,24.00
2018-11-22T19:57:50.635Z,24.60
2018-11-22T20:00:19.551Z,29.80
2018-11-22T20:02:47.998Z,24.70
2018-11-22T20:05:17.316Z,24.60
2018-11-22T20:07:47.005Z,23.57
2018-11-22T20:10:19.796Z,23.60
2018-11-22T20:12:47.951Z,25.10
2018-11-22T20:15:16.438Z,23.87
2018-11-22T20:17:45.201Z,26.10
2018-11-22T20:20:14.244Z,29.70
2018-11-22T20:22:42.621Z,27.30
2018-11-22T20:25:10.798Z,25.53
2018-11-22T20:27:39.547Z,31.73
2018-11-22T20:30:08.954Z,28.00
2018-11-22T20:32:38.962Z,29.50
2018-11-22T20:35:06.382Z,27.80
2018-11-22T20:37:34.539Z,27.73
2018-11-22T20:40:02.739Z,30.70
2018-11-22T20:42:30.912Z,28.10
2018-11-22T20:44:59.099Z,27.90
2018-11-22T20:47:27.259Z,29.80
2018-11-22T20:49:55.447Z,29.20
2018-11-22T20:52:23.599Z,27.60
2018-11-22T20:54:51.787Z,26.90
2018-11-22T20:57:19.965Z,28.53
2018-11-22T20:59:48.143Z,27.27
2018-11-22T21:02:16.336Z,27.23
2018-11-22T21:04:44.514Z,27.47
2018-11-22T21:07:12.700Z,27.30
2018-11-22T21:09:40.883Z,30.00
2018-11-22T21:12:09.041Z,26.00
2018-11-22T21:14:37.788Z,28.27
2018-11-22T21:17:06.410Z,26.30
2018-11-22T21:19:34.738Z,33.67
2018-11-22T21:22:02.916Z,26.60
2018-11-22T21:24:31.092Z,31.30
2018-11-22T21:26:59.251Z,26.23
2018-11-22T21:29:27.541Z,29.20
2018-11-22T21:31:55.825Z,25.20
2018-11-22T21:34:24.033Z,27.60
2018-11-22T21:36:52.201Z,25.20
2018-11-22T21:39:20.343Z,25.10
2018-11-22T21:41:49.036Z,30.70
2018-11-22T21:44:17.827Z,29.23
2018-11-22T21:46:46.220Z,24.43
2018-11-22T21:49:14.891Z,27.17
2018-11-22T21:51:43.677Z,25.90
2018-11-22T21:54:11.852Z,26.07
2018-11-22T21:56:40.043Z,24.70
2018-11-22T21:59:08.211Z,27.90
2018-11-22T22:01:36.411Z,30.03
2018-11-22T22:04:04.803Z,30.93
2018-11-22T22:06:32.995Z,31.53
2018-11-22T22:09:01.148Z,31.60
2018-11-22T22:11:29.328Z,28.97
2018-11-22T22:13:57.890Z,32.57
2018-11-22T22:16:26.176Z,29.13
2018-11-22T22:18:54.323Z,26.57
2018-11-22T22:21:22.548Z,28.70
2018-11-22T22:23:50.717Z,28.03
2018-11-22T22:26:18.887Z,30.30
2018-11-22T22:28:47.027Z,31.50
2018-11-22T22:31:15.231Z,30.43
2018-11-22T22:33:43.396Z,31.17
2018-11-22T22:36:11.595Z,26.57
2018-11-22T22:38:39.749Z,29.77
2018-11-22T22:41:08.309Z,27.00
2018-11-22T22:43:36.495Z,29.20
2018-11-22T22:46:04.912Z,30.40
2018-11-22T22:48:33.062Z,28.67
2018-11-22T22:51:01.236Z,29.23
2018-11-22T22:53:29.399Z,33.73
2018-11-22T22:55:57.587Z,29.87
2018-11-22T22:58:25.748Z,28.00
2018-11-22T23:00:53.952Z,27.90
2018-11-22T23:03:22.123Z,30.13
2018-11-22T23:05:50.683Z,28.97
2018-11-22T23:08:18.862Z,28.33
2018-11-22T23:10:47.042Z,33.20
2018-11-22T23:13:15.203Z,27.57
2018-11-22T23:15:43.360Z,34.33
2018-11-22T23:18:11.532Z,31.70
2018-11-22T23:20:39.693Z,26.40
2018-11-22T23:23:07.868Z,29.73
2018-11-22T23:25:36.032Z,30.57
2018-11-22T23:28:04.235Z,30.63
2018-11-22T23:30:33.620Z,28.53
2018-11-22T23:33:04.072Z,25.17
2018-11-22T23:35:32.232Z,31.47
2018-11-22T23:38:00.435Z,24.80
2018-11-22T23:40:30.510Z,29.43
2018-11-22T23:42:58.686Z,29.27
2018-11-22T23:45:28.181Z,30.53
2018-11-22T23:47:56.389Z,29.80
2018-11-22T23:50:25.862Z,29.73
2018-11-22T23:52:55.113Z,32.80
2018-11-22T23:55:23.294Z,33.67
2018-11-22T23:57:51.507Z,38.50
